createdAt,value
2024-01-01T00:00:10.037Z,88.77
2024-01-01T00:02:40.396Z,87.91
2024-01-01T00:05:09.386Z,87.56
2024-01-01T00:07:36.566Z,87.19
2024-01-01T00:10:03.968Z,86.62
2024-01-01T00:12:31.042Z,85.88
2024-01-01T00:14:58.058Z,85.21
2024-01-01T00:17:26.211Z,85.58
2024-01-01T00:20:18.411Z,84.82
2024-01-01T00:22:45.773Z,85.60
2024-01-01T00:25:12.729Z,85.73
2024-01-01T00:27:40.046Z,85.54
2024-01-01T00:30:07.682Z,85.52
2024-01-01T00:32:37.874Z,85.47
2024-01-01T00:35:06.179Z,86.25
2024-01-01T00:37:33.298Z,86.94
2024-01-01T00:40:05.800Z,87.20
2024-01-01T00:42:37.632Z,87.64
2024-01-01T00:45:05.194Z,88.42
2024-01-01T00:47:35.782Z,89.16
2024-01-01T00:50:03.078Z,89.69
2024-01-01T00:52:32.233Z,89.79
2024-01-01T00:54:59.164Z,89.82
2024-01-01T00:57:26.655Z,89.57
2024-01-01T00:59:53.734Z,89.91
2024-01-01T01:02:21.748Z,90.72
2024-01-01T01:04:59.327Z,90.99
2024-01-01T01:07:33.176Z,92.04
2024-01-01T01:10:00.219Z,92.44
2024-01-01T01:12:27.732Z,93.52
2024-01-01T01:14:55.920Z,93.97
2024-01-01T01:17:23.651Z,94.47
2024-01-01T01:19:51.647Z,94.37
2024-01-01T01:22:19.212Z,95.08
2024-01-01T01:25:11.469Z,94.90
2024-01-01T01:27:39.209Z,95.76
2024-01-01T01:30:06.674Z,96.48
2024-01-01T01:32:37.238Z,97.56
2024-01-01T01:35:04.819Z,97.92
2024-01-01T01:37:33.287Z,96.50
2024-01-01T01:40:00.861Z,97.46
2024-01-01T01:42:28.906Z,97.61
2024-01-01T01:44:57.092Z,97.57
2024-01-01T01:47:25.370Z,97.76
2024-01-01T01:49:53.101Z,98.63
2024-01-01T01:52:23.202Z,98.50
2024-01-01T01:54:52.893Z,99.43
2024-01-01T01:57:21.511Z,99.41
2024-01-01T01:59:48.761Z,100.00
2024-01-01T02:02:17.016Z,99.49
2024-01-01T02:04:44.328Z,99.33
2024-01-01T02:07:11.363Z,100.00
2024-01-01T02:09:39.853Z,99.46
2024-01-01T02:12:10.207Z,100.00
2024-01-01T02:14:38.021Z,99.83
2024-01-01T02:17:05.981Z,99.53
2024-01-01T02:19:34.800Z,99.49
2024-01-01T02:22:03.958Z,99.56
2024-01-01T02:24:31.753Z,100.00
2024-01-01T02:26:58.849Z,100.00
2024-01-01T02:29:25.990Z,100.00
2024-01-01T02:31:53.145Z,100.00
2024-01-01T02:34:20.451Z,100.00
2024-01-01T02:36:47.393Z,100.00
2024-01-01T02:39:14.469Z,100.00
2024-01-01T02:41:41.568Z,100.00
2024-01-01T02:44:09.146Z,100.00
2024-01-01T02:46:36.615Z,100.00
2024-01-01T02:49:03.978Z,100.00
2024-01-01T02:51:31.133Z,100.00
2024-01-01T02:53:58.213Z,100.00
2024-01-01T02:56:26.953Z,100.00
2024-01-01T02:58:55.444Z,100.00
2024-01-01T03:01:22.641Z,100.00
2024-01-01T03:03:51.009Z,100.00
2024-01-01T03:06:20.015Z,100.00
2024-01-01T03:08:48.214Z,100.00
2024-01-01T03:11:15.484Z,100.00
2024-01-01T03:13:42.847Z,100.00
2024-01-01T03:16:10.156Z,100.00
2024-01-01T03:18:37.981Z,100.00
2024-01-01T03:21:06.884Z,100.00
2024-01-01T03:23:33.988Z,100.00
2024-01-01T03:26:01.225Z,100.00
2024-01-01T03:28:28.193Z,100.00
2024-01-01T03:30:55.571Z,100.00
2024-01-01T03:33:22.856Z,100.00
2024-01-01T03:35:49.828Z,100.00
2024-01-01T03:38:18.401Z,100.00
2024-01-01T03:40:45.594Z,100.00
2024-01-01T03:43:12.854Z,100.00
2024-01-01T03:45:40.309Z,100.00
2024-01-01T03:48:08.030Z,100.00
2024-01-01T03:50:35.368Z,100.00
2024-01-01T03:53:03.420Z,100.00
2024-01-01T03:55:30.567Z,100.00
2024-01-01T03:57:57.599Z,100.00
2024-01-01T04:00:24.905Z,100.00
2024-01-01T04:02:51.890Z,100.00
2024-01-01T04:05:18.881Z,100.00
2024-01-01T04:07:46.028Z,100.00
2024-01-01T04:10:13.050Z,100.00
2024-01-01T04:12:39.979Z,100.00
2024-01-01T04:17:58.689Z,100.00
2024-01-01T04:20:25.862Z,100.00
2024-01-01T04:22:53.044Z,100.00
2024-01-01T04:25:20.740Z,100.00
2024-01-01T04:27:47.879Z,100.00
2024-01-01T04:30:15.062Z,100.00
2024-01-01T04:32:42.389Z,100.00
2024-01-01T04:35:09.914Z,100.00
2024-01-01T04:37:37.066Z,100.00
2024-01-01T04:40:04.509Z,100.00
2024-01-01T04:42:31.408Z,100.00
2024-01-01T04:44:58.646Z,100.00
2024-01-01T04:47:25.679Z,100.00
2024-01-01T04:49:54.301Z,100.00
2024-01-01T04:52:21.412Z,100.00
2024-01-01T04:54:48.414Z,100.00
2024-01-01T04:57:16.467Z,100.00
2024-01-01T04:59:43.846Z,100.00
2024-01-01T05:02:11.005Z,100.00
2024-01-01T05:04:37.910Z,100.00
2024-01-01T05:07:05.132Z,100.00
2024-01-01T05:09:34.351Z,100.00
2024-01-01T05:12:01.407Z,100.00
2024-01-01T05:14:29.502Z,100.00
2024-01-01T05:16:56.532Z,100.00
2024-01-01T05:19:23.524Z,100.00
2024-01-01T05:21:51.042Z,100.00
2024-01-01T05:24:17.935Z,100.00
2024-01-01T05:26:44.962Z,100.00
2024-01-01T05:29:12.069Z,100.00
2024-01-01T05:31:39.161Z,100.00
2024-01-01T05:34:06.787Z,100.00
2024-01-01T05:36:33.897Z,100.00
2024-01-01T05:39:00.920Z,100.00
2024-01-01T05:41:28.481Z,100.00
2024-01-01T05:43:55.540Z,100.00
2024-01-01T05:46:23.460Z,100.00
2024-01-01T05:48:51.105Z,100.00
2024-01-01T05:51:18.095Z,100.00
2024-01-01T05:53:46.478Z,100.00
2024-01-01T05:56:13.617Z,100.00
2024-01-01T05:58:40.767Z,100.00
2024-01-01T06:01:09.651Z,100.00
2024-01-01T06:03:36.723Z,100.00
2024-01-01T06:06:03.860Z,100.00
2024-01-01T06:08:32.108Z,100.00
2024-01-01T06:10:59.055Z,100.00
2024-01-01T06:13:26.064Z,100.00
2024-01-01T06:15:53.499Z,100.00
2024-01-01T06:18:20.598Z,100.00
2024-01-01T06:20:48.026Z,100.00
2024-01-01T06:23:15.580Z,100.00
2024-01-01T06:25:42.828Z,100.00
2024-01-01T06:28:09.900Z,100.00
2024-01-01T06:30:36.838Z,100.00
2024-01-01T06:33:06.529Z,100.00
2024-01-01T06:35:33.505Z,100.00
2024-01-01T06:38:01.598Z,100.00
2024-01-01T06:40:28.610Z,100.00
2024-01-01T06:42:55.631Z,100.00
2024-01-01T06:45:22.634Z,100.00
2024-01-01T06:47:53.537Z,100.00
2024-01-01T06:50:21.276Z,100.00
2024-01-01T06:52:48.635Z,100.00
2024-01-01T06:55:18.569Z,100.00
2024-01-01T06:57:45.647Z,100.00
2024-01-01T07:00:13.542Z,100.00
2024-01-01T07:02:41.037Z,100.00
2024-01-01T07:05:08.721Z,100.00
2024-01-01T07:07:38.544Z,100.00
2024-01-01T07:10:05.706Z,100.00
2024-01-01T07:12:33.574Z,99.00
2024-01-01T07:15:00.647Z,98.80
2024-01-01T07:17:29.776Z,99.21
2024-01-01T07:19:57.288Z,100.00
2024-01-01T07:22:24.320Z,99.54
2024-01-01T07:24:52.051Z,100.00
2024-01-01T07:27:19.086Z,100.00
2024-01-01T07:29:45.975Z,99.73
2024-01-01T07:32:13.157Z,100.00
2024-01-01T07:34:40.226Z,99.51
2024-01-01T07:37:09.220Z,98.75
2024-01-01T07:39:36.331Z,100.00
2024-01-01T07:42:03.399Z,99.25
2024-01-01T07:44:32.449Z,99.46
2024-01-01T07:47:00.293Z,100.00
2024-01-01T07:49:27.314Z,99.43
2024-01-01T07:51:58.040Z,98.76
2024-01-01T07:54:25.061Z,99.33
2024-01-01T07:56:51.995Z,98.37
2024-01-01T07:59:19.064Z,97.50
2024-01-01T08:01:47.137Z,98.04
2024-01-01T08:04:14.087Z,97.10
2024-01-01T08:06:41.009Z,97.55
2024-01-01T08:09:07.975Z,98.11
2024-01-01T08:11:36.073Z,98.04
2024-01-01T08:14:04.749Z,98.26
2024-01-01T08:16:34.580Z,96.95
2024-01-01T08:19:01.776Z,96.31
2024-01-01T08:21:30.550Z,96.53
2024-01-01T08:23:57.606Z,96.91
2024-01-01T08:26:25.124Z,96.17
2024-01-01T08:28:54.859Z,95.98
2024-01-01T08:31:22.370Z,95.75
2024-01-01T08:33:49.701Z,94.25
2024-01-01T08:36:16.752Z,95.13
2024-01-01T08:38:44.116Z,94.51
2024-01-01T08:41:11.240Z,94.24
2024-01-01T08:43:39.132Z,93.65
2024-01-01T08:46:06.697Z,92.16
2024-01-01T08:48:34.697Z,92.06
2024-01-01T08:51:01.890Z,91.83
2024-01-01T08:53:31.601Z,89.23
2024-01-01T08:56:01.049Z,89.38
2024-01-01T08:58:28.623Z,90.78
2024-01-01T09:00:55.502Z,91.04
2024-01-01T09:03:22.613Z,90.99
2024-01-01T09:05:49.709Z,88.56
2024-01-01T09:08:16.749Z,90.35
2024-01-01T09:10:43.784Z,90.90
2024-01-01T09:13:12.714Z,90.89
2024-01-01T09:15:39.864Z,91.91
2024-01-01T09:18:07.355Z,90.98
2024-01-01T09:20:35.559Z,90.32
2024-01-01T09:23:02.701Z,90.42
2024-01-01T09:25:29.833Z,90.01
2024-01-01T09:27:56.716Z,89.54
2024-01-01T09:30:23.701Z,88.76
2024-01-01T09:35:42.189Z,86.82
2024-01-01T09:38:10.605Z,87.00
2024-01-01T09:40:38.199Z,85.97
2024-01-01T09:43:05.276Z,86.99
2024-01-01T09:45:35.767Z,86.23
2024-01-01T09:48:02.851Z,84.91
2024-01-01T09:50:30.164Z,84.35
2024-01-01T09:53:01.163Z,84.00
2024-01-01T09:55:28.848Z,83.53
2024-01-01T09:57:55.933Z,83.08
2024-01-01T10:00:24.727Z,83.18
2024-01-01T10:03:07.591Z,82.64
2024-01-01T10:05:35.775Z,81.91
2024-01-01T10:08:11.525Z,82.26
2024-01-01T10:10:40.490Z,81.31
2024-01-01T10:13:09.492Z,82.05
2024-01-01T10:15:40.697Z,79.94
2024-01-01T10:18:09.601Z,80.44
2024-01-01T10:20:37.434Z,79.63
2024-01-01T10:23:26.615Z,78.72
2024-01-01T10:26:11.878Z,80.57
2024-01-01T10:28:39.777Z,79.67
2024-01-01T10:31:06.853Z,78.20
2024-01-01T10:33:35.497Z,77.51
2024-01-01T10:36:03.787Z,79.88
2024-01-01T10:38:32.013Z,79.71
2024-01-01T10:41:00.138Z,79.09
2024-01-01T10:43:27.361Z,78.06
2024-01-01T10:46:02.424Z,77.18
2024-01-01T10:48:31.247Z,77.15
2024-01-01T10:51:21.715Z,76.30
2024-01-01T10:54:11.472Z,73.87
2024-01-01T10:57:02.484Z,76.06
2024-01-01T10:59:57.145Z,75.35
2024-01-01T11:02:26.255Z,75.19
2024-01-01T11:05:07.166Z,73.44
2024-01-01T11:07:55.816Z,73.59
2024-01-01T11:10:41.371Z,73.07
2024-01-01T11:13:12.638Z,72.08
2024-01-01T11:15:46.051Z,73.25
2024-01-01T11:18:13.926Z,72.09
2024-01-01T11:20:57.538Z,74.44
2024-01-01T11:23:48.497Z,73.54
2024-01-01T11:26:24.801Z,73.85
2024-01-01T11:28:56.344Z,74.19
2024-01-01T11:31:25.326Z,73.67
2024-01-01T11:34:13.282Z,73.41
2024-01-01T11:36:50.821Z,71.71
2024-01-01T11:39:17.893Z,74.32
2024-01-01T11:41:48.771Z,73.04
2024-01-01T11:44:17.594Z,74.02
2024-01-01T11:46:47.099Z,74.85
2024-01-01T11:49:14.219Z,72.91
2024-01-01T11:51:56.610Z,70.00
2024-01-01T11:54:24.825Z,71.75
2024-01-01T11:56:56.922Z,72.44
2024-01-01T11:59:25.832Z,69.99
2024-01-01T12:01:53.130Z,71.88
2024-01-01T12:04:23.043Z,71.76
2024-01-01T12:06:53.682Z,73.10
2024-01-01T12:09:20.755Z,71.67
2024-01-01T12:11:48.403Z,73.08
2024-01-01T12:14:16.660Z,73.83
2024-01-01T12:16:44.435Z,72.55
2024-01-01T12:19:11.761Z,73.79
2024-01-01T12:21:42.580Z,72.03
2024-01-01T12:24:14.303Z,73.56
2024-01-01T12:26:41.616Z,73.17
2024-01-01T12:29:16.937Z,73.62
2024-01-01T12:31:46.089Z,73.88
2024-01-01T12:34:23.918Z,74.22
2024-01-01T12:36:50.935Z,74.29
2024-01-01T12:39:19.889Z,74.92
2024-01-01T12:41:47.097Z,74.83
2024-01-01T12:44:14.940Z,74.85
2024-01-01T12:46:42.186Z,75.11
2024-01-01T12:49:09.531Z,75.45
2024-01-01T12:51:36.941Z,74.92
2024-01-01T12:54:04.195Z,75.09
2024-01-01T12:56:31.319Z,73.48
2024-01-01T12:58:58.370Z,73.09
2024-01-01T13:01:26.357Z,72.96
2024-01-01T13:03:53.585Z,74.47
2024-01-01T13:06:22.818Z,74.07
2024-01-01T13:08:51.374Z,74.22
2024-01-01T13:11:18.594Z,73.20
2024-01-01T13:13:46.933Z,73.17
2024-01-01T13:16:14.015Z,72.09
2024-01-01T13:18:41.200Z,71.88
2024-01-01T13:21:08.413Z,72.64
2024-01-01T13:23:35.377Z,72.24
2024-01-01T13:26:02.874Z,72.05
2024-01-01T13:28:29.921Z,73.02
2024-01-01T13:30:57.232Z,71.53
2024-01-01T13:33:24.559Z,72.86
2024-01-01T13:35:51.633Z,72.45
2024-01-01T13:38:18.668Z,72.08
2024-01-01T13:40:47.006Z,73.30
2024-01-01T13:43:13.962Z,73.45
2024-01-01T13:45:41.792Z,73.36
2024-01-01T13:48:09.930Z,73.67
2024-01-01T13:50:37.945Z,72.51
2024-01-01T13:53:05.953Z,72.23
2024-01-01T13:55:34.522Z,73.00
2024-01-01T13:58:02.901Z,72.41
2024-01-01T14:00:30.247Z,72.42
2024-01-01T14:02:58.039Z,72.78
2024-01-01T14:05:25.347Z,73.06
2024-01-01T14:07:53.299Z,73.34
2024-01-01T14:10:21.903Z,73.74
2024-01-01T14:12:49.727Z,73.14
2024-01-01T14:15:21.185Z,71.68
2024-01-01T14:17:48.404Z,71.95
2024-01-01T14:20:15.788Z,72.43
2024-01-01T14:22:42.827Z,72.36
2024-01-01T14:25:11.392Z,71.34
2024-01-01T14:27:40.293Z,72.40
2024-01-01T14:30:07.913Z,72.00
2024-01-01T14:32:35.661Z,72.14
2024-01-01T14:35:03.141Z,70.90
2024-01-01T14:37:30.473Z,71.83
2024-01-01T14:39:57.635Z,72.01
2024-01-01T14:42:24.690Z,72.01
2024-01-01T14:44:51.612Z,72.58
2024-01-01T14:47:18.678Z,72.51
2024-01-01T14:49:45.667Z,73.42
2024-01-01T14:52:15.978Z,72.27
2024-01-01T14:54:43.599Z,73.37
2024-01-01T14:57:11.426Z,72.27
2024-01-01T14:59:38.550Z,72.41
2024-01-01T15:02:05.715Z,73.09
2024-01-01T15:04:34.009Z,73.39
2024-01-01T15:07:01.074Z,72.34
2024-01-01T15:09:28.148Z,73.09
2024-01-01T15:11:55.132Z,73.78
2024-01-01T15:14:22.146Z,73.24
2024-01-01T15:16:49.133Z,73.81
2024-01-01T15:19:16.300Z,74.33
2024-01-01T15:21:45.049Z,73.86
2024-01-01T15:24:12.075Z,73.63
2024-01-01T15:26:39.115Z,73.98
2024-01-01T15:29:06.411Z,74.33
2024-01-01T15:31:33.358Z,74.68
2024-01-01T15:34:00.755Z,74.86
2024-01-01T15:36:27.732Z,75.53
2024-01-01T15:39:20.026Z,75.91
2024-01-01T15:41:47.493Z,75.95
2024-01-01T15:44:15.648Z,76.24
2024-01-01T15:46:42.553Z,76.72
2024-01-01T15:49:11.631Z,76.81
2024-01-01T15:51:39.995Z,77.09
2024-01-01T15:54:07.663Z,77.19
2024-01-01T15:56:35.026Z,77.63
2024-01-01T15:59:02.374Z,78.16
2024-01-01T16:01:29.277Z,78.49
2024-01-01T16:03:56.633Z,78.99
2024-01-01T16:06:25.043Z,79.10
2024-01-01T16:08:52.174Z,79.90
2024-01-01T16:11:19.119Z,79.75
2024-01-01T16:13:46.579Z,79.29
2024-01-01T16:16:13.533Z,80.00
2024-01-01T16:18:42.162Z,79.26
2024-01-01T16:21:09.216Z,79.19
2024-01-01T16:23:37.057Z,78.69
2024-01-01T16:26:04.501Z,78.79
2024-01-01T16:28:31.755Z,78.96
2024-01-01T16:30:58.657Z,78.76
2024-01-01T16:33:25.818Z,78.27
2024-01-01T16:35:53.607Z,78.74
2024-01-01T16:38:22.564Z,78.25
2024-01-01T16:40:53.655Z,78.51
2024-01-01T16:43:20.709Z,78.67
2024-01-01T16:45:48.131Z,77.94
2024-01-01T16:48:15.343Z,78.11
2024-01-01T16:50:43.591Z,78.38
2024-01-01T16:53:14.198Z,78.13
2024-01-01T16:55:41.184Z,77.94
2024-01-01T16:58:08.234Z,77.73
2024-01-01T17:00:36.148Z,78.25
2024-01-01T17:03:03.313Z,78.16
2024-01-01T17:05:30.743Z,78.54
2024-01-01T17:07:58.486Z,78.35
2024-01-01T17:10:25.639Z,78.54
2024-01-01T17:12:53.612Z,78.98
2024-01-01T17:15:20.533Z,79.29
2024-01-01T17:17:50.227Z,79.28
2024-01-01T17:20:17.272Z,79.11
2024-01-01T17:22:44.667Z,79.13
2024-01-01T17:25:12.298Z,79.14
2024-01-01T17:27:39.847Z,78.20
2024-01-01T17:30:07.364Z,78.09
2024-01-01T17:32:35.223Z,77.93
2024-01-01T17:35:02.330Z,77.03
2024-01-01T17:37:29.609Z,76.86
2024-01-01T17:39:56.681Z,76.69
2024-01-01T17:42:23.653Z,76.27
2024-01-01T17:44:50.814Z,76.32
2024-01-01T17:47:18.550Z,76.53
2024-01-01T17:49:45.614Z,76.70
2024-01-01T17:52:12.834Z,75.95
2024-01-01T17:54:40.647Z,76.51
2024-01-01T17:57:10.164Z,76.30
2024-01-01T17:59:39.344Z,76.33
2024-01-01T18:02:08.017Z,76.84
2024-01-01T18:04:37.098Z,76.95
2024-01-01T18:07:05.386Z,76.81
2024-01-01T18:09:34.626Z,76.71
2024-01-01T18:12:02.789Z,77.09
2024-01-01T18:14:30.805Z,77.20
2024-01-01T18:16:58.089Z,77.34
2024-01-01T18:19:26.721Z,77.71
2024-01-01T18:21:55.273Z,77.78
2024-01-01T18:24:23.414Z,78.09
2024-01-01T18:26:51.595Z,78.40
2024-01-01T18:29:18.639Z,78.19
2024-01-01T18:31:47.791Z,78.90
2024-01-01T18:34:15.223Z,79.04
2024-01-01T18:36:42.744Z,78.90
2024-01-01T18:39:09.752Z,79.74
2024-01-01T18:41:36.796Z,80.00
2024-01-01T18:44:04.528Z,79.51
2024-01-01T18:46:31.690Z,79.53
2024-01-01T18:48:59.940Z,79.80
2024-01-01T18:51:27.395Z,79.80
2024-01-01T18:53:54.630Z,79.45
2024-01-01T18:56:23.323Z,80.32
2024-01-01T18:58:51.276Z,80.39
2024-01-01T19:01:20.251Z,80.47
2024-01-01T19:03:47.795Z,81.11
2024-01-01T19:06:16.869Z,81.31
2024-01-01T19:08:48.236Z,82.20
2024-01-01T19:11:16.272Z,82.10
2024-01-01T19:13:47.956Z,82.16
2024-01-01T19:16:18.545Z,81.87
2024-01-01T19:18:46.507Z,81.91
2024-01-01T19:21:13.997Z,82.01
2024-01-01T19:23:42.031Z,81.94
2024-01-01T19:26:09.847Z,81.66
2024-01-01T19:28:38.274Z,82.72
2024-01-01T19:31:05.450Z,82.54
2024-01-01T19:33:33.072Z,83.18
2024-01-01T19:36:00.871Z,82.65
2024-01-01T19:38:28.958Z,82.90
2024-01-01T19:40:56.491Z,82.58
2024-01-01T19:43:23.715Z,82.28
2024-01-01T19:45:50.713Z,82.80
2024-01-01T19:48:17.686Z,83.17
2024-01-01T19:50:44.965Z,82.59
2024-01-01T19:53:24.420Z,83.16
2024-01-01T19:55:55.028Z,83.46
2024-01-01T19:58:22.510Z,83.36
2024-01-01T20:00:50.043Z,83.82
2024-01-01T20:03:17.764Z,84.13
2024-01-01T20:05:45.596Z,84.19
2024-01-01T20:08:13.641Z,84.07
2024-01-01T20:10:41.785Z,83.55
2024-01-01T20:13:10.328Z,84.28
2024-01-01T20:15:38.915Z,83.96
2024-01-01T20:18:07.313Z,84.43
2024-01-01T20:20:34.753Z,84.55
2024-01-01T20:23:02.542Z,84.54
2024-01-01T20:25:30.242Z,85.04
2024-01-01T20:27:58.229Z,84.76
2024-01-01T20:30:26.294Z,84.86
2024-01-01T20:32:53.967Z,84.80
2024-01-01T20:35:22.928Z,84.33
2024-01-01T20:37:49.862Z,83.77
2024-01-01T20:40:19.424Z,83.61
2024-01-01T20:42:46.710Z,81.37
2024-01-01T20:45:14.845Z,82.08
2024-01-01T20:47:43.446Z,80.85
2024-01-01T20:50:10.928Z,78.44
2024-01-01T20:52:45.975Z,79.23
2024-01-01T20:55:17.279Z,79.01
2024-01-01T20:57:44.076Z,79.31
2024-01-01T21:00:11.962Z,78.95
2024-01-01T21:02:39.646Z,78.64
2024-01-01T21:05:11.343Z,78.62
2024-01-01T21:07:38.795Z,78.10
2024-01-01T21:10:06.026Z,78.79
2024-01-01T21:12:33.271Z,77.46
2024-01-01T21:15:00.043Z,77.50
2024-01-01T21:17:27.015Z,76.08
2024-01-01T21:19:53.888Z,75.34
2024-01-01T21:22:20.666Z,75.67
2024-01-01T21:24:48.339Z,76.48
2024-01-01T21:27:17.426Z,76.13
2024-01-01T21:29:45.444Z,75.17
2024-01-01T21:32:12.475Z,75.15
2024-01-01T21:34:39.824Z,74.90
2024-01-01T21:37:06.726Z,72.99
2024-01-01T21:39:33.638Z,74.63
2024-01-01T21:42:00.716Z,73.77
2024-01-01T21:44:27.648Z,74.91
2024-01-01T21:46:54.563Z,75.02
2024-01-01T21:49:23.342Z,74.90
2024-01-01T21:51:50.734Z,75.07
2024-01-01T21:54:17.558Z,74.54
2024-01-01T21:56:45.844Z,73.75
2024-01-01T21:59:13.606Z,74.83
2024-01-01T22:01:42.791Z,74.69
2024-01-01T22:04:09.542Z,74.93
2024-01-01T22:06:38.311Z,74.37
2024-01-01T22:09:05.840Z,74.10
2024-01-01T22:11:32.966Z,74.32
2024-01-01T22:14:01.807Z,74.24
2024-01-01T22:16:29.792Z,74.57
2024-01-01T22:18:56.768Z,74.01
2024-01-01T22:21:24.719Z,75.06
2024-01-01T22:23:51.860Z,74.38
2024-01-01T22:26:18.915Z,74.46
2024-01-01T22:28:46.376Z,75.64
2024-01-01T22:31:17.709Z,75.26
2024-01-01T22:33:45.392Z,74.47
2024-01-01T22:36:12.256Z,74.98
2024-01-01T22:38:39.138Z,74.68
2024-01-01T22:41:06.932Z,75.13
2024-01-01T22:43:33.687Z,74.07
2024-01-01T22:46:00.639Z,74.28
2024-01-01T22:48:29.735Z,73.99
2024-01-01T22:50:56.838Z,74.15
2024-01-01T22:53:25.273Z,74.33
2024-01-01T22:55:52.359Z,71.71
2024-01-01T22:58:19.251Z,71.88
2024-01-01T23:00:46.254Z,72.72
2024-01-01T23:03:13.086Z,71.28
2024-01-01T23:05:40.701Z,73.18
2024-01-01T23:08:07.864Z,72.30
2024-01-01T23:10:34.595Z,72.72
2024-01-01T23:13:03.208Z,72.41
2024-01-01T23:15:30.004Z,72.83
2024-01-01T23:17:59.422Z,72.93
2024-01-01T23:20:26.288Z,73.01
2024-01-01T23:22:53.288Z,73.39
2024-01-01T23:25:20.109Z,73.49
2024-01-01T23:27:46.931Z,73.32
2024-01-01T23:30:14.138Z,73.58
2024-01-01T23:32:41.091Z,73.58
2024-01-01T23:35:08.484Z,73.93
2024-01-01T23:37:35.634Z,73.77
2024-01-01T23:40:02.479Z,73.84
2024-01-01T23:42:29.332Z,74.19
2024-01-01T23:44:56.340Z,74.25
2024-01-01T23:47:23.246Z,74.29
2024-01-01T23:49:50.330Z,74.67
2024-01-01T23:52:17.280Z,74.32
2024-01-01T23:54:44.290Z,74.52
2024-01-01T23:57:11.996Z,74.53
2024-01-01T23:59:39.537Z,74.59
